Hollinger, Nebraska
Current Conditions -  °F | °C
As of 3:35 PM on Thursday 23 Oct 2014 (Local Time) from KHDE Reporting Station
Clear Clear  
Wind Chill: 60°   Ceiling: Unl
Heat Index: 60°   Visibility: 10mi
Dew Point: 54°   Wind: 13mph
Humidity: 80%   Direction: 200°SSW
Pressure: 30.04"   Gusts: NA
Location:  40.2849°N, 99.6171°W
Report Text: KHDE 232035Z AUTO 20011KT 10SM CLR 16/12 A3004 RMK AO2 T01580123
Loading
Personal Weather Stations






























Interactive Weather Map
Tropical Storm Tracking
New forecast layout! Learn more

10-Day Weather Forecast

Advertisements
Track Severe Weather on mobile